sensor_id;sensor_type;location;lat;lon;timestamp;P1;durP1;ratioP1;P2;durP2;ratioP2
64419;SDS011;50745;48.170;14.516;2022-09-06T00:06:19;7.05;;;6.35;;
64419;SDS011;50745;48.170;14.516;2022-09-06T00:16:22;7.43;;;6.72;;
64419;SDS011;50745;48.170;14.516;2022-09-06T00:26:24;7.45;;;6.70;;
64419;SDS011;50745;48.170;14.516;2022-09-06T00:36:25;7.50;;;6.20;;
64419;SDS011;50745;48.170;14.516;2022-09-06T00:46:27;6.90;;;6.30;;
64419;SDS011;50745;48.170;14.516;2022-09-06T00:56:29;7.85;;;6.32;;
64419;SDS011;50745;48.170;14.516;2022-09-06T01:37:15;6.93;;;6.28;;
64419;SDS011;50745;48.170;14.516;2022-09-06T02:07:35;6.50;;;5.55;;
64419;SDS011;50745;48.170;14.516;2022-09-06T02:17:39;6.78;;;5.78;;
64419;SDS011;50745;48.170;14.516;2022-09-06T02:37:43;7.90;;;5.40;;
64419;SDS011;50745;48.170;14.516;2022-09-06T02:47:45;7.45;;;5.00;;
64419;SDS011;50745;48.170;14.516;2022-09-06T02:57:46;6.93;;;5.22;;
64419;SDS011;50745;48.170;14.516;2022-09-06T03:07:47;6.32;;;5.40;;
64419;SDS011;50745;48.170;14.516;2022-09-06T03:17:49;6.10;;;5.35;;
64419;SDS011;50745;48.170;14.516;2022-09-06T03:27:50;6.18;;;5.30;;
64419;SDS011;50745;48.170;14.516;2022-09-06T03:37:52;5.90;;;4.90;;
64419;SDS011;50745;48.170;14.516;2022-09-06T03:47:53;5.75;;;5.03;;
64419;SDS011;50745;48.170;14.516;2022-09-06T03:57:54;5.88;;;5.00;;
64419;SDS011;50745;48.170;14.516;2022-09-06T04:07:55;6.50;;;5.07;;
64419;SDS011;50745;48.170;14.516;2022-09-06T04:17:57;5.85;;;5.00;;
64419;SDS011;50745;48.170;14.516;2022-09-06T04:27:58;6.30;;;4.95;;
64419;SDS011;50745;48.170;14.516;2022-09-06T04:37:59;7.25;;;5.40;;
64419;SDS011;50745;48.170;14.516;2022-09-06T04:48:01;6.47;;;5.10;;
64419;SDS011;50745;48.170;14.516;2022-09-06T04:58:03;9.27;;;5.95;;
64419;SDS011;50745;48.170;14.516;2022-09-06T05:08:04;7.00;;;5.80;;
64419;SDS011;50745;48.170;14.516;2022-09-06T05:18:06;6.15;;;5.53;;
64419;SDS011;50745;48.170;14.516;2022-09-06T05:28:07;6.85;;;5.70;;
64419;SDS011;50745;48.170;14.516;2022-09-06T05:38:08;6.97;;;5.45;;
64419;SDS011;50745;48.170;14.516;2022-09-06T05:48:09;7.05;;;5.45;;
64419;SDS011;50745;48.170;14.516;2022-09-06T05:58:11;8.32;;;5.15;;
64419;SDS011;50745;48.170;14.516;2022-09-06T06:08:12;6.65;;;5.47;;
64419;SDS011;50745;48.170;14.516;2022-09-06T06:18:14;6.20;;;5.20;;
64419;SDS011;50745;48.170;14.516;2022-09-06T06:28:15;9.13;;;5.82;;
64419;SDS011;50745;48.170;14.516;2022-09-06T06:38:16;7.78;;;6.10;;
64419;SDS011;50745;48.170;14.516;2022-09-06T06:48:18;9.90;;;6.30;;
64419;SDS011;50745;48.170;14.516;2022-09-06T06:58:19;7.47;;;6.32;;
64419;SDS011;50745;48.170;14.516;2022-09-06T07:08:20;8.60;;;6.45;;
64419;SDS011;50745;48.170;14.516;2022-09-06T07:18:22;9.10;;;6.50;;
64419;SDS011;50745;48.170;14.516;2022-09-06T07:28:23;7.55;;;6.75;;
64419;SDS011;50745;48.170;14.516;2022-09-06T07:38:24;6.57;;;5.90;;
64419;SDS011;50745;48.170;14.516;2022-09-06T07:48:26;8.23;;;6.15;;
64419;SDS011;50745;48.170;14.516;2022-09-06T07:58:28;8.20;;;5.80;;
64419;SDS011;50745;48.170;14.516;2022-09-06T08:08:30;7.60;;;6.38;;
64419;SDS011;50745;48.170;14.516;2022-09-06T08:18:31;9.52;;;6.03;;
64419;SDS011;50745;48.170;14.516;2022-09-06T08:28:33;13.45;;;8.80;;
64419;SDS011;50745;48.170;14.516;2022-09-06T08:38:34;8.70;;;7.20;;
64419;SDS011;50745;48.170;14.516;2022-09-06T08:48:35;8.38;;;7.50;;
64419;SDS011;50745;48.170;14.516;2022-09-06T09:08:42;10.65;;;7.32;;
64419;SDS011;50745;48.170;14.516;2022-09-06T09:18:47;9.80;;;7.28;;
64419;SDS011;50745;48.170;14.516;2022-09-06T09:29:06;9.88;;;7.50;;
64419;SDS011;50745;48.170;14.516;2022-09-06T09:39:11;8.00;;;6.90;;
64419;SDS011;50745;48.170;14.516;2022-09-06T09:59:20;8.50;;;7.68;;
64419;SDS011;50745;48.170;14.516;2022-09-06T10:09:35;9.02;;;7.65;;
64419;SDS011;50745;48.170;14.516;2022-09-06T10:19:41;8.77;;;7.65;;
64419;SDS011;50745;48.170;14.516;2022-09-06T10:29:44;8.25;;;7.00;;
64419;SDS011;50745;48.170;14.516;2022-09-06T10:39:48;7.72;;;6.75;;
64419;SDS011;50745;48.170;14.516;2022-09-06T10:49:55;7.82;;;7.03;;
64419;SDS011;50745;48.170;14.516;2022-09-06T11:00:01;7.97;;;7.17;;
64419;SDS011;50745;48.170;14.516;2022-09-06T11:20:07;7.95;;;6.68;;
64419;SDS011;50745;48.170;14.516;2022-09-06T11:30:14;7.45;;;6.70;;
64419;SDS011;50745;48.170;14.516;2022-09-06T11:40:17;8.85;;;7.18;;
64419;SDS011;50745;48.170;14.516;2022-09-06T11:50:54;8.20;;;7.40;;
64419;SDS011;50745;48.170;14.516;2022-09-06T12:21:40;7.27;;;6.57;;
64419;SDS011;50745;48.170;14.516;2022-09-06T12:31:43;7.07;;;6.38;;
64419;SDS011;50745;48.170;14.516;2022-09-06T12:41:54;6.55;;;5.93;;
64419;SDS011;50745;48.170;14.516;2022-09-06T12:52:10;6.82;;;6.10;;
64419;SDS011;50745;48.170;14.516;2022-09-06T13:02:14;7.35;;;5.90;;
64419;SDS011;50745;48.170;14.516;2022-09-06T13:32:44;7.40;;;5.82;;
64419;SDS011;50745;48.170;14.516;2022-09-06T13:42:46;8.98;;;6.20;;
64419;SDS011;50745;48.170;14.516;2022-09-06T13:52:47;6.40;;;5.60;;
64419;SDS011;50745;48.170;14.516;2022-09-06T14:02:48;7.00;;;5.35;;
64419;SDS011;50745;48.170;14.516;2022-09-06T14:12:52;6.45;;;5.75;;
64419;SDS011;50745;48.170;14.516;2022-09-06T14:22:53;7.22;;;5.97;;
64419;SDS011;50745;48.170;14.516;2022-09-06T14:32:55;6.68;;;5.90;;
64419;SDS011;50745;48.170;14.516;2022-09-06T14:42:56;7.82;;;6.28;;
64419;SDS011;50745;48.170;14.516;2022-09-06T14:52:57;7.85;;;5.95;;
64419;SDS011;50745;48.170;14.516;2022-09-06T15:02:59;7.13;;;5.82;;
64419;SDS011;50745;48.170;14.516;2022-09-06T15:13:04;6.35;;;5.60;;
64419;SDS011;50745;48.170;14.516;2022-09-06T15:23:05;6.28;;;5.60;;
64419;SDS011;50745;48.170;14.516;2022-09-06T15:33:06;8.55;;;5.75;;
64419;SDS011;50745;48.170;14.516;2022-09-06T15:43:10;6.70;;;5.60;;
64419;SDS011;50745;48.170;14.516;2022-09-06T15:53:11;6.60;;;5.60;;
64419;SDS011;50745;48.170;14.516;2022-09-06T16:03:12;7.38;;;5.50;;
64419;SDS011;50745;48.170;14.516;2022-09-06T16:13:14;7.07;;;5.55;;
64419;SDS011;50745;48.170;14.516;2022-09-06T16:23:16;8.00;;;5.28;;
64419;SDS011;50745;48.170;14.516;2022-09-06T16:33:17;6.15;;;5.25;;
64419;SDS011;50745;48.170;14.516;2022-09-06T16:43:19;7.30;;;5.07;;
64419;SDS011;50745;48.170;14.516;2022-09-06T16:53:20;5.78;;;5.10;;
64419;SDS011;50745;48.170;14.516;2022-09-06T17:03:22;6.82;;;5.10;;
64419;SDS011;50745;48.170;14.516;2022-09-06T17:13:23;19.80;;;4.90;;
64419;SDS011;50745;48.170;14.516;2022-09-06T17:23:25;29.23;;;5.68;;
64419;SDS011;50745;48.170;14.516;2022-09-06T17:33:27;14.15;;;4.97;;
64419;SDS011;50745;48.170;14.516;2022-09-06T17:43:28;15.00;;;4.82;;
64419;SDS011;50745;48.170;14.516;2022-09-06T17:53:30;10.90;;;4.25;;
64419;SDS011;50745;48.170;14.516;2022-09-06T18:03:31;12.25;;;5.50;;
64419;SDS011;50745;48.170;14.516;2022-09-06T18:13:32;48.47;;;15.68;;
64419;SDS011;50745;48.170;14.516;2022-09-06T18:23:34;43.30;;;15.52;;
64419;SDS011;50745;48.170;14.516;2022-09-06T18:33:36;31.02;;;12.60;;
64419;SDS011;50745;48.170;14.516;2022-09-06T18:43:38;22.45;;;11.02;;
64419;SDS011;50745;48.170;14.516;2022-09-06T18:53:41;19.80;;;8.90;;
64419;SDS011;50745;48.170;14.516;2022-09-06T19:03:45;17.75;;;8.75;;
64419;SDS011;50745;48.170;14.516;2022-09-06T19:13:49;13.88;;;8.25;;
64419;SDS011;50745;48.170;14.516;2022-09-06T19:23:58;11.23;;;7.55;;
64419;SDS011;50745;48.170;14.516;2022-09-06T19:33:59;11.20;;;7.20;;
64419;SDS011;50745;48.170;14.516;2022-09-06T19:44:01;12.23;;;7.97;;
64419;SDS011;50745;48.170;14.516;2022-09-06T20:04:07;9.48;;;7.88;;
64419;SDS011;50745;48.170;14.516;2022-09-06T20:14:09;9.55;;;8.43;;
64419;SDS011;50745;48.170;14.516;2022-09-06T20:24:11;9.82;;;8.07;;
64419;SDS011;50745;48.170;14.516;2022-09-06T20:34:13;8.77;;;7.78;;
64419;SDS011;50745;48.170;14.516;2022-09-06T20:44:14;8.90;;;7.97;;
64419;SDS011;50745;48.170;14.516;2022-09-06T20:54:16;8.98;;;8.07;;
64419;SDS011;50745;48.170;14.516;2022-09-06T21:04:17;8.50;;;7.70;;
64419;SDS011;50745;48.170;14.516;2022-09-06T21:14:18;9.32;;;8.32;;
64419;SDS011;50745;48.170;14.516;2022-09-06T21:24:20;8.88;;;8.07;;
64419;SDS011;50745;48.170;14.516;2022-09-06T21:34:21;8.73;;;7.93;;
64419;SDS011;50745;48.170;14.516;2022-09-06T21:44:23;9.38;;;8.48;;
64419;SDS011;50745;48.170;14.516;2022-09-06T21:54:25;9.23;;;8.32;;
64419;SDS011;50745;48.170;14.516;2022-09-06T22:04:28;9.70;;;8.52;;
64419;SDS011;50745;48.170;14.516;2022-09-06T22:14:29;9.98;;;9.07;;
64419;SDS011;50745;48.170;14.516;2022-09-06T22:24:31;9.73;;;8.32;;
64419;SDS011;50745;48.170;14.516;2022-09-06T22:34:32;9.90;;;8.40;;
64419;SDS011;50745;48.170;14.516;2022-09-06T22:44:34;9.73;;;8.73;;
64419;SDS011;50745;48.170;14.516;2022-09-06T22:54:35;10.07;;;9.07;;
64419;SDS011;50745;48.170;14.516;2022-09-06T23:04:37;10.32;;;8.85;;
64419;SDS011;50745;48.170;14.516;2022-09-06T23:14:39;10.00;;;8.63;;
64419;SDS011;50745;48.170;14.516;2022-09-06T23:24:40;9.52;;;8.43;;
64419;SDS011;50745;48.170;14.516;2022-09-06T23:34:42;9.77;;;8.77;;
64419;SDS011;50745;48.170;14.516;2022-09-06T23:44:43;9.93;;;9.00;;
64419;SDS011;50745;48.170;14.516;2022-09-06T23:54:44;9.57;;;8.60;;
